KPLN/PLN METAR and TAF weather

Enter ICAO airport designator
Station Type Date Time Source
KPLN METAR 2021/04/13 22:54 UTC NOAA

KPLN 132254Z AUTO 25011G19KT 10SM OVC070 09/00 A3003 RMK AO2 SLP175 T00890000


Station Type Date Time Source
KPLN Decoded METAR 2021/04/13 22:54 UTC NOAA

PELLSTON REGIONAL AIRPORT, MI, United States (KPLN) 45-34N 084-48W 217M
Apr 13, 2021 - 06:54 PM EDT / 2021.04.13 2254 UTC
Wind: from the WSW (250 degrees) at 13 MPH (11 KT) gusting to 22 MPH (19 KT):0
Visibility: 10 mile(s):0
Sky conditions: overcast
Temperature: 48.0 F (8.9 C)
Dew Point: 32.0 F (0.0 C)
Relative Humidity: 53%
Pressure (altimeter): 30.03 in. Hg (1016 hPa)
ob: KPLN 132254Z AUTO 25011G19KT 10SM OVC070 09/00 A3003 RMK AO2 SLP175 T00890000
cycle: 23

Station Type Date Time Source
KPLN TAF 2021/04/13 18:21 UTC NOAA

TAF KPLN 131720Z 1318/1418 24010KT P6SM SCT040
FM140000 25008KT P6SM BKN050
FM141200 VRB04KT P6SM BKN030
FM141500 25006KT P6SM BKN025
FM141700 26007KT P6SM BKN020

Example: see airport list